createdAt,value
2023-02-03T00:00:19.208Z,101612.80
2023-02-03T00:01:50.978Z,101602.80
2023-02-03T00:03:22.893Z,101612.20
2023-02-03T00:04:54.698Z,101601.40
2023-02-03T00:06:26.812Z,101605.20
2023-02-03T00:07:58.708Z,101609.80
2023-02-03T00:09:30.742Z,101617.60
2023-02-03T00:11:02.699Z,101606.40
2023-02-03T00:12:34.931Z,101601.40
2023-02-03T00:14:08.042Z,101602.20
2023-02-03T00:15:39.830Z,101604.40
2023-02-03T00:17:11.483Z,101602.00
2023-02-03T00:18:43.271Z,101595.60
2023-02-03T00:20:15.497Z,101598.20
2023-02-03T00:21:47.912Z,101595.60
2023-02-03T00:23:19.818Z,101597.20
2023-02-03T00:24:51.528Z,101596.60
2023-02-03T00:26:25.896Z,101593.80
2023-02-03T00:27:57.931Z,101583.60
2023-02-03T00:29:29.796Z,101580.20
2023-02-03T00:31:01.563Z,101575.00
2023-02-03T00:32:33.311Z,101587.80
2023-02-03T00:34:05.099Z,101575.00
2023-02-03T00:35:40.096Z,101583.20
2023-02-03T00:37:14.495Z,101579.80
2023-02-03T00:38:49.022Z,101584.20
2023-02-03T00:40:23.594Z,101588.40
2023-02-03T00:41:55.426Z,101587.60
2023-02-03T00:43:28.564Z,101587.40
2023-02-03T00:45:00.295Z,101587.60
2023-02-03T00:46:36.106Z,101598.20
2023-02-03T00:48:09.021Z,101595.60
2023-02-03T00:49:40.791Z,101597.60
2023-02-03T00:51:12.567Z,101596.60
2023-02-03T00:52:44.302Z,101595.20
2023-02-03T00:54:17.359Z,101591.80
2023-02-03T00:55:49.668Z,101592.60
2023-02-03T00:57:22.075Z,101605.60
2023-02-03T00:58:53.979Z,101612.80
2023-02-03T01:00:26.281Z,101621.80
2023-02-03T01:02:00.406Z,101621.40
2023-02-03T01:03:32.126Z,101625.80
2023-02-03T01:05:04.114Z,101625.60
2023-02-03T01:06:35.862Z,101637.40
2023-02-03T01:08:08.992Z,101625.60
2023-02-03T01:09:41.220Z,101632.00
2023-02-03T01:11:22.976Z,101644.00
2023-02-03T01:12:58.017Z,101648.80
2023-02-03T01:14:33.041Z,101654.40
2023-02-03T01:16:12.289Z,101659.20
2023-02-03T01:17:51.060Z,101665.20
2023-02-03T01:19:25.685Z,101672.80
2023-02-03T01:20:59.461Z,101661.80
2023-02-03T01:22:31.707Z,101663.00
2023-02-03T01:24:03.680Z,101656.60
2023-02-03T01:25:36.413Z,101650.20
2023-02-03T01:27:08.237Z,101644.80
2023-02-03T01:28:40.798Z,101655.20
2023-02-03T01:30:12.904Z,101655.00
2023-02-03T01:31:44.766Z,101653.20
2023-02-03T01:33:16.615Z,101652.80
2023-02-03T01:34:48.343Z,101642.40
2023-02-03T01:36:23.985Z,101643.40
2023-02-03T01:37:55.940Z,101645.40
2023-02-03T01:39:27.676Z,101653.80
2023-02-03T01:40:59.366Z,101654.00
2023-02-03T01:42:33.922Z,101665.20
2023-02-03T01:44:47.667Z,101658.80
2023-02-03T01:46:46.956Z,101639.00
2023-02-03T01:48:22.893Z,101636.60
2023-02-03T01:50:10.449Z,101649.20
2023-02-03T01:51:48.766Z,101637.20
2023-02-03T01:53:27.407Z,101647.60
2023-02-03T01:55:12.955Z,101647.40
2023-02-03T01:57:03.215Z,101644.60
2023-02-03T01:58:43.251Z,101639.20
2023-02-03T02:00:16.845Z,101640.60
2023-02-03T02:01:55.596Z,101645.80
2023-02-03T02:03:44.452Z,101647.20
2023-02-03T02:05:32.499Z,101646.40
2023-02-03T02:07:05.183Z,101636.80
2023-02-03T02:08:40.086Z,101630.40
2023-02-03T02:10:12.104Z,101617.20
2023-02-03T02:11:47.462Z,101609.80
2023-02-03T02:13:24.472Z,101609.60
2023-02-03T02:14:57.786Z,101609.80
2023-02-03T02:16:38.328Z,101609.80
2023-02-03T02:19:09.775Z,101618.00
2023-02-03T02:21:05.418Z,101612.20
2023-02-03T02:22:56.144Z,101598.20
2023-02-03T02:24:56.846Z,101597.60
2023-02-03T02:26:50.908Z,101594.60
2023-02-03T02:29:10.447Z,101584.00
2023-02-03T02:31:17.563Z,101581.40
2023-02-03T02:32:58.043Z,101585.40
2023-02-03T02:34:58.019Z,101588.40
2023-02-03T02:36:56.700Z,101579.60
2023-02-03T02:38:45.538Z,101570.60
2023-02-03T02:40:59.213Z,101571.40
2023-02-03T02:43:00.695Z,101569.60
2023-02-03T02:44:41.556Z,101563.60
2023-02-03T02:46:24.720Z,101568.00
2023-02-03T02:48:06.488Z,101568.40
2023-02-03T02:50:07.063Z,101561.60
2023-02-03T02:51:41.205Z,101560.00
2023-02-03T02:53:21.464Z,101549.80
2023-02-03T02:55:00.178Z,101542.00
2023-02-03T02:56:39.026Z,101546.20
2023-02-03T02:58:20.519Z,101542.40
2023-02-03T02:59:55.937Z,101531.20
2023-02-03T03:01:28.865Z,101540.40
2023-02-03T03:03:16.325Z,101554.80
2023-02-03T03:04:58.083Z,101579.40
2023-02-03T03:06:42.255Z,101587.00
2023-02-03T03:08:21.694Z,101590.60
2023-02-03T03:10:13.379Z,101589.60
2023-02-03T03:11:52.399Z,101590.40
2023-02-03T03:13:36.393Z,101595.40
2023-02-03T03:15:25.827Z,101588.40
2023-02-03T03:17:12.150Z,101593.20
2023-02-03T03:19:02.238Z,101591.20
2023-02-03T03:20:40.898Z,101584.40
2023-02-03T03:22:18.370Z,101583.20
2023-02-03T03:23:59.029Z,101583.40
2023-02-03T03:25:42.584Z,101581.60
2023-02-03T03:27:32.991Z,101583.40
2023-02-03T03:29:38.207Z,101577.20
2023-02-03T03:31:10.732Z,101574.60
2023-02-03T03:32:44.292Z,101576.20
2023-02-03T03:34:17.693Z,101574.20
2023-02-03T03:36:05.237Z,101584.80
2023-02-03T03:37:43.853Z,101569.20
2023-02-03T03:39:38.336Z,101573.40
2023-02-03T03:41:24.870Z,101579.20
2023-02-03T03:43:16.133Z,101576.80
2023-02-03T03:45:13.752Z,101575.60
2023-02-03T03:46:56.161Z,101573.00
2023-02-03T03:48:53.213Z,101569.80
2023-02-03T03:50:42.592Z,101581.00
2023-02-03T03:52:25.471Z,101578.80
2023-02-03T03:54:04.855Z,101589.40
2023-02-03T03:55:39.571Z,101584.60
2023-02-03T03:57:26.103Z,101579.80
2023-02-03T03:59:02.723Z,101582.60
2023-02-03T04:00:37.757Z,101579.00
2023-02-03T04:02:12.224Z,101588.20
2023-02-03T04:03:52.664Z,101582.60
2023-02-03T04:05:26.466Z,101585.00
2023-02-03T04:06:58.325Z,101579.00
2023-02-03T04:08:30.160Z,101581.40
2023-02-03T04:10:07.187Z,101571.60
2023-02-03T04:11:57.740Z,101578.60
2023-02-03T04:13:29.457Z,101580.20
2023-02-03T04:15:01.164Z,101580.00
2023-02-03T04:16:32.906Z,101570.00
2023-02-03T04:18:05.722Z,101564.80
2023-02-03T04:19:37.415Z,101566.20
2023-02-03T04:21:10.177Z,101572.40
2023-02-03T04:22:42.567Z,101572.60
2023-02-03T04:24:14.438Z,101570.40
2023-02-03T04:25:46.120Z,101580.40
2023-02-03T04:27:17.842Z,101577.20
2023-02-03T04:28:49.518Z,101586.00
2023-02-03T04:30:21.573Z,101594.20
2023-02-03T04:31:53.329Z,101591.40
2023-02-03T04:33:25.134Z,101582.20
2023-02-03T04:34:58.562Z,101575.80
2023-02-03T04:36:30.675Z,101564.80
2023-02-03T04:38:02.394Z,101568.40
2023-02-03T04:39:34.110Z,101573.60
2023-02-03T04:41:05.828Z,101576.60
2023-02-03T04:42:39.735Z,101583.80
2023-02-03T04:44:11.389Z,101572.20
2023-02-03T04:45:43.146Z,101566.00
2023-02-03T04:47:16.132Z,101569.20
2023-02-03T04:48:47.892Z,101569.60
2023-02-03T04:50:19.708Z,101558.40
2023-02-03T04:51:52.124Z,101547.20
2023-02-03T04:53:23.909Z,101545.00
2023-02-03T04:54:55.761Z,101552.40
2023-02-03T04:56:27.534Z,101540.20
2023-02-03T04:58:01.274Z,101530.80
2023-02-03T04:59:33.118Z,101534.00
2023-02-03T05:01:09.807Z,101538.20
2023-02-03T05:02:41.593Z,101535.00
2023-02-03T05:04:13.489Z,101539.20
2023-02-03T05:05:45.446Z,101545.40
2023-02-03T05:07:17.232Z,101541.40
2023-02-03T05:08:48.881Z,101545.60
2023-02-03T05:10:20.882Z,101548.20
2023-02-03T05:11:53.154Z,101550.40
2023-02-03T05:13:24.958Z,101543.20
2023-02-03T05:14:56.646Z,101542.40
2023-02-03T05:16:28.414Z,101533.20
2023-02-03T05:18:00.099Z,101525.40
2023-02-03T05:19:31.810Z,101532.80
2023-02-03T05:21:04.392Z,101531.80
2023-02-03T05:22:36.054Z,101526.20
2023-02-03T05:24:08.149Z,101524.40
2023-02-03T05:25:39.834Z,101536.00
2023-02-03T05:27:11.507Z,101537.80
2023-02-03T05:28:43.196Z,101541.40
2023-02-03T05:30:14.934Z,101542.60
2023-02-03T05:31:46.760Z,101545.80
2023-02-03T05:33:18.696Z,101541.20
2023-02-03T05:34:50.375Z,101539.20
2023-02-03T05:36:22.209Z,101517.60
2023-02-03T05:37:54.043Z,101518.20
2023-02-03T05:39:25.755Z,101516.40
2023-02-03T05:41:16.334Z,101518.60
2023-02-03T05:42:49.694Z,101523.00
2023-02-03T05:44:23.981Z,101527.60
2023-02-03T05:45:59.348Z,101531.00
2023-02-03T05:47:31.190Z,101529.40
2023-02-03T05:49:03.213Z,101530.40
2023-02-03T05:50:38.471Z,101526.40
2023-02-03T05:52:13.446Z,101524.40
2023-02-03T05:53:45.260Z,101530.00
2023-02-03T05:55:17.011Z,101529.20
2023-02-03T05:56:49.023Z,101524.60
2023-02-03T05:58:20.730Z,101530.20
2023-02-03T05:59:52.376Z,101540.80
2023-02-03T06:01:24.365Z,101538.00
2023-02-03T06:03:00.747Z,101532.40
2023-02-03T06:04:32.575Z,101523.80
2023-02-03T06:06:04.485Z,101537.20
2023-02-03T06:07:36.226Z,101537.60
2023-02-03T06:09:09.364Z,101539.60
2023-02-03T06:10:41.381Z,101545.80
2023-02-03T06:12:13.077Z,101550.00
2023-02-03T06:13:44.824Z,101557.20
2023-02-03T06:15:17.502Z,101550.60
2023-02-03T06:16:49.248Z,101545.00
2023-02-03T06:18:21.258Z,101540.60
2023-02-03T06:19:52.986Z,101535.40
2023-02-03T06:21:24.743Z,101539.80
2023-02-03T06:22:57.252Z,101533.80
2023-02-03T06:24:28.926Z,101533.20
2023-02-03T06:26:00.943Z,101531.60
2023-02-03T06:27:32.790Z,101537.20
2023-02-03T06:29:04.499Z,101543.40
2023-02-03T06:30:36.432Z,101534.40
2023-02-03T06:32:09.526Z,101533.60
2023-02-03T06:33:41.245Z,101531.80
2023-02-03T06:35:13.011Z,101538.40
2023-02-03T06:36:44.756Z,101558.80
2023-02-03T06:38:16.700Z,101543.40
2023-02-03T06:39:48.424Z,101541.20
2023-02-03T06:41:20.260Z,101537.20
2023-02-03T06:42:52.066Z,101539.80
2023-02-03T06:44:23.990Z,101541.40
2023-02-03T06:45:55.787Z,101546.20
2023-02-03T06:47:27.722Z,101551.40
2023-02-03T06:48:59.464Z,101544.80
2023-02-03T06:50:31.464Z,101550.60
2023-02-03T06:52:03.351Z,101548.20
2023-02-03T06:53:35.057Z,101545.40
2023-02-03T06:55:07.696Z,101549.80
2023-02-03T06:56:39.640Z,101552.20
2023-02-03T06:58:11.319Z,101553.00
2023-02-03T06:59:42.972Z,101556.00
2023-02-03T07:01:14.901Z,101558.40
2023-02-03T07:02:53.054Z,101554.80
2023-02-03T07:04:24.914Z,101545.80
2023-02-03T07:05:56.661Z,101550.80
2023-02-03T07:07:28.542Z,101557.40
2023-02-03T07:09:03.407Z,101560.20
2023-02-03T07:10:35.143Z,101560.00
2023-02-03T07:12:09.008Z,101562.40
2023-02-03T07:13:40.783Z,101551.80
2023-02-03T07:15:13.514Z,101562.20
2023-02-03T07:16:45.289Z,101571.80
2023-02-03T07:18:30.868Z,101562.60
2023-02-03T07:20:10.443Z,101554.40
2023-02-03T07:21:42.414Z,101560.20
2023-02-03T07:23:14.148Z,101566.20
2023-02-03T07:24:45.881Z,101561.20
2023-02-03T07:26:18.856Z,101550.20
2023-02-03T07:27:51.407Z,101554.00
2023-02-03T07:29:23.187Z,101550.40
2023-02-03T07:30:55.052Z,101551.60
2023-02-03T07:32:26.788Z,101561.60
2023-02-03T07:33:58.630Z,101552.20
2023-02-03T07:35:30.325Z,101554.40
2023-02-03T07:37:02.160Z,101549.80
2023-02-03T07:38:33.994Z,101549.40
2023-02-03T07:40:06.118Z,101542.40
2023-02-03T07:41:37.955Z,101542.80
2023-02-03T07:43:09.676Z,101551.80
2023-02-03T07:44:41.322Z,101555.00
2023-02-03T07:46:13.632Z,101553.00
2023-02-03T07:47:45.565Z,101559.20
2023-02-03T07:49:17.252Z,101552.80
2023-02-03T07:50:50.707Z,101568.00
2023-02-03T07:52:22.405Z,101564.80
2023-02-03T07:53:54.175Z,101558.00
2023-02-03T07:55:26.825Z,101550.40
2023-02-03T07:56:58.631Z,101557.80
2023-02-03T07:58:31.620Z,101572.80
2023-02-03T08:00:05.099Z,101567.60
2023-02-03T08:01:44.096Z,101565.40
2023-02-03T08:03:15.943Z,101560.60
2023-02-03T08:04:47.742Z,101561.60
2023-02-03T08:06:19.532Z,101564.80
2023-02-03T08:07:51.315Z,101569.00
2023-02-03T08:09:23.031Z,101564.60
2023-02-03T08:10:57.765Z,101568.00
2023-02-03T08:12:29.474Z,101570.60
2023-02-03T08:14:01.261Z,101572.80
2023-02-03T08:15:33.142Z,101573.20
2023-02-03T08:17:04.926Z,101567.40
2023-02-03T08:18:36.672Z,101577.20
2023-02-03T08:20:09.954Z,101572.00
2023-02-03T08:21:41.978Z,101564.80
2023-02-03T08:23:13.857Z,101570.00
2023-02-03T08:24:47.331Z,101574.80
2023-02-03T08:26:19.079Z,101579.60
2023-02-03T08:27:50.817Z,101583.80
2023-02-03T08:29:22.545Z,101588.00
2023-02-03T08:30:54.345Z,101578.80
2023-02-03T08:32:27.267Z,101572.60
2023-02-03T08:33:59.237Z,101573.60
2023-02-03T08:35:30.944Z,101562.80
2023-02-03T08:37:02.751Z,101570.60
2023-02-03T08:38:34.542Z,101562.40
2023-02-03T08:40:07.604Z,101561.80
2023-02-03T08:41:39.410Z,101567.20
2023-02-03T08:43:11.277Z,101569.00
2023-02-03T08:44:44.196Z,101561.40
2023-02-03T08:46:16.064Z,101554.60
2023-02-03T08:47:47.895Z,101563.40
2023-02-03T08:49:20.702Z,101562.20
2023-02-03T08:50:52.971Z,101569.20
2023-02-03T08:52:24.912Z,101573.40
2023-02-03T08:53:56.687Z,101573.00
2023-02-03T08:55:28.636Z,101570.40
2023-02-03T08:57:00.461Z,101586.00
2023-02-03T08:58:32.324Z,101582.60
2023-02-03T09:00:09.144Z,101575.00
2023-02-03T09:01:44.745Z,101575.60
2023-02-03T09:03:16.711Z,101580.80
2023-02-03T09:04:49.479Z,101577.80
2023-02-03T09:06:23.800Z,101580.20
2023-02-03T09:07:57.142Z,101584.20
2023-02-03T09:09:29.514Z,101595.60
2023-02-03T09:11:01.351Z,101592.80
2023-02-03T09:12:33.128Z,101593.60
2023-02-03T09:14:07.174Z,101577.60
2023-02-03T09:15:39.120Z,101584.40
2023-02-03T09:17:11.096Z,101590.00
2023-02-03T09:18:43.834Z,101593.60
2023-02-03T09:20:16.211Z,101601.20
2023-02-03T09:21:49.149Z,101597.40
2023-02-03T09:23:21.538Z,101591.60
2023-02-03T09:24:53.275Z,101593.80
2023-02-03T09:26:25.021Z,101602.80
2023-02-03T09:27:56.834Z,101598.60
2023-02-03T09:29:28.887Z,101602.80
2023-02-03T09:31:10.221Z,101597.80
2023-02-03T09:32:41.951Z,101599.40
2023-02-03T09:34:13.936Z,101600.40
2023-02-03T09:35:53.742Z,101605.60
2023-02-03T09:37:25.439Z,101609.60
2023-02-03T09:38:58.341Z,101606.80
2023-02-03T09:40:36.935Z,101610.60
2023-02-03T09:43:16.143Z,101607.80
2023-02-03T09:45:05.383Z,101615.20
2023-02-03T09:46:48.812Z,101598.00
2023-02-03T09:48:36.371Z,101593.40
2023-02-03T09:50:20.777Z,101596.80
2023-02-03T09:52:19.383Z,101599.80
2023-02-03T09:54:19.189Z,101596.00
2023-02-03T09:55:51.014Z,101591.20
2023-02-03T09:57:26.731Z,101577.80
2023-02-03T09:58:59.209Z,101588.60
2023-02-03T10:00:56.024Z,101582.60
2023-02-03T10:02:33.011Z,101585.80
2023-02-03T10:04:33.602Z,101583.20
2023-02-03T10:06:17.162Z,101588.80
2023-02-03T10:08:19.753Z,101594.40
2023-02-03T10:10:14.632Z,101605.20
2023-02-03T10:12:27.436Z,101607.80
2023-02-03T10:14:54.176Z,101595.80
2023-02-03T10:16:47.942Z,101615.80
2023-02-03T10:18:31.043Z,101612.20
2023-02-03T10:20:19.179Z,101612.20
2023-02-03T10:21:58.885Z,101603.60
2023-02-03T10:23:36.304Z,101599.80
2023-02-03T10:25:25.210Z,101608.40
2023-02-03T10:26:57.539Z,101604.20
2023-02-03T10:28:45.669Z,101596.00
2023-02-03T10:30:22.060Z,101622.80
2023-02-03T10:31:58.573Z,101622.80
2023-02-03T10:33:34.432Z,101634.00
2023-02-03T10:35:13.162Z,101625.60
2023-02-03T10:37:29.107Z,101626.60
2023-02-03T10:39:25.000Z,101625.00
2023-02-03T10:40:57.300Z,101628.80
2023-02-03T10:42:53.465Z,101624.40
2023-02-03T10:44:37.917Z,101630.00
2023-02-03T10:46:09.710Z,101625.60
2023-02-03T10:47:55.625Z,101619.20
2023-02-03T10:49:29.116Z,101612.40
2023-02-03T10:51:02.996Z,101616.60
2023-02-03T10:52:36.446Z,101625.00
2023-02-03T10:54:36.456Z,101622.60
2023-02-03T10:56:16.028Z,101617.60
2023-02-03T10:57:47.931Z,101612.20
2023-02-03T10:59:32.107Z,101611.60
2023-02-03T11:01:11.777Z,101617.20
2023-02-03T11:02:43.903Z,101614.80
2023-02-03T11:04:33.126Z,101621.00
2023-02-03T11:06:12.332Z,101618.40
2023-02-03T11:07:46.158Z,101609.00
2023-02-03T11:09:53.630Z,101621.20
2023-02-03T11:11:32.562Z,101607.80
2023-02-03T11:13:18.468Z,101616.00
2023-02-03T11:14:53.857Z,101623.00
2023-02-03T11:16:25.863Z,101617.80
2023-02-03T11:17:57.629Z,101628.40
2023-02-03T11:19:29.854Z,101620.40
2023-02-03T11:21:09.145Z,101623.80
2023-02-03T11:22:44.112Z,101625.60
2023-02-03T11:24:24.826Z,101633.20
2023-02-03T11:25:56.723Z,101634.60
2023-02-03T11:27:33.156Z,101647.80
2023-02-03T11:29:08.307Z,101632.80
2023-02-03T11:30:40.181Z,101634.20
2023-02-03T11:32:41.745Z,101640.20
2023-02-03T11:34:24.146Z,101642.00
2023-02-03T11:35:59.450Z,101645.00
2023-02-03T11:37:42.982Z,101650.00
2023-02-03T11:39:29.202Z,101640.80
2023-02-03T11:41:01.855Z,101644.40
2023-02-03T11:42:41.397Z,101641.00
2023-02-03T11:44:23.657Z,101647.00
2023-02-03T11:46:03.689Z,101639.80
2023-02-03T11:47:35.520Z,101626.20
2023-02-03T11:49:45.628Z,101634.00
2023-02-03T11:51:52.521Z,101639.20
2023-02-03T11:53:56.301Z,101636.80
2023-02-03T11:55:34.878Z,101639.80
2023-02-03T11:57:20.912Z,101646.20
2023-02-03T11:59:24.840Z,101642.00
2023-02-03T12:01:33.069Z,101644.60
2023-02-03T12:03:32.343Z,101631.80
2023-02-03T12:05:28.714Z,101634.00
2023-02-03T12:07:25.554Z,101637.80
2023-02-03T12:09:10.073Z,101644.20
2023-02-03T12:11:00.320Z,101633.80
2023-02-03T12:12:32.363Z,101640.40
2023-02-03T12:14:04.249Z,101641.00
2023-02-03T12:16:01.500Z,101641.00
2023-02-03T12:18:13.655Z,101643.20
2023-02-03T12:20:14.180Z,101651.80
2023-02-03T12:21:57.623Z,101654.00
2023-02-03T12:24:09.624Z,101651.80
2023-02-03T12:26:03.169Z,101659.60
2023-02-03T12:28:01.562Z,101666.80
2023-02-03T12:29:43.981Z,101664.00
2023-02-03T12:31:15.768Z,101671.80
2023-02-03T12:32:57.275Z,101657.20
2023-02-03T12:35:01.082Z,101660.00
2023-02-03T12:36:41.805Z,101648.20
2023-02-03T12:38:24.439Z,101637.60
2023-02-03T12:40:05.131Z,101644.80
2023-02-03T12:41:46.529Z,101641.80
2023-02-03T12:43:26.494Z,101642.20
2023-02-03T12:45:09.841Z,101639.80
2023-02-03T12:46:52.754Z,101641.60
2023-02-03T12:48:52.148Z,101652.60
2023-02-03T12:50:45.988Z,101649.20
2023-02-03T12:52:30.686Z,101654.80
2023-02-03T12:54:31.014Z,101650.60
2023-02-03T12:56:14.073Z,101648.60
2023-02-03T12:57:55.075Z,101642.00
2023-02-03T12:59:32.658Z,101644.20
2023-02-03T13:01:09.980Z,101648.40
2023-02-03T13:03:10.836Z,101644.00
2023-02-03T13:04:57.864Z,101646.60
2023-02-03T13:06:57.307Z,101654.80
2023-02-03T13:08:58.290Z,101665.20
2023-02-03T13:11:16.051Z,101653.80
2023-02-03T13:12:56.046Z,101656.20
2023-02-03T13:14:56.929Z,101642.60
2023-02-03T13:16:36.554Z,101649.80
2023-02-03T13:18:37.348Z,101656.60
2023-02-03T13:20:27.104Z,101641.80
2023-02-03T13:21:59.046Z,101643.40
2023-02-03T13:23:31.702Z,101634.40
2023-02-03T13:25:22.632Z,101638.60
2023-02-03T13:27:24.888Z,101632.60
2023-02-03T13:29:14.564Z,101643.60
2023-02-03T13:31:13.450Z,101635.20
2023-02-03T13:33:03.896Z,101645.20
2023-02-03T13:35:09.346Z,101643.40
2023-02-03T13:37:18.842Z,101643.60
2023-02-03T13:39:37.396Z,101667.20
2023-02-03T13:41:36.882Z,101665.20
2023-02-03T13:43:38.167Z,101658.60
2023-02-03T13:46:00.508Z,101656.80
2023-02-03T13:47:33.355Z,101697.20
2023-02-03T13:49:08.722Z,101688.80
2023-02-03T13:50:41.707Z,101682.40
2023-02-03T13:52:37.756Z,101681.00
2023-02-03T13:54:31.859Z,101683.00
2023-02-03T13:56:24.814Z,101680.20
2023-02-03T13:57:57.648Z,101679.80
2023-02-03T13:59:38.716Z,101680.00
2023-02-03T14:01:30.198Z,101685.60
2023-02-03T14:03:01.923Z,101684.80
2023-02-03T14:04:36.807Z,101689.60
2023-02-03T14:06:37.067Z,101685.00
2023-02-03T14:08:27.501Z,101687.60
2023-02-03T14:10:24.252Z,101685.60
2023-02-03T14:12:30.064Z,101692.60
2023-02-03T14:14:07.413Z,101696.60
2023-02-03T14:15:39.957Z,101696.40
2023-02-03T14:17:36.346Z,101691.20
2023-02-03T14:19:34.048Z,101700.00
2023-02-03T14:21:25.327Z,101702.80
2023-02-03T14:23:09.522Z,101705.00
2023-02-03T14:24:47.103Z,101713.60
2023-02-03T14:26:41.251Z,101717.60
2023-02-03T14:28:31.698Z,101717.20
2023-02-03T14:30:15.092Z,101727.80
2023-02-03T14:32:13.201Z,101736.40
2023-02-03T14:34:13.255Z,101736.40
2023-02-03T14:35:45.070Z,101745.40
2023-02-03T14:37:30.880Z,101746.20
2023-02-03T14:39:28.423Z,101747.40
2023-02-03T14:41:05.486Z,101748.80
2023-02-03T14:43:26.924Z,101752.40
2023-02-03T14:45:15.279Z,101753.20
2023-02-03T14:47:25.927Z,101754.00
2023-02-03T14:49:33.413Z,101758.40
2023-02-03T14:51:50.809Z,101760.20
2023-02-03T14:53:46.995Z,101747.80
2023-02-03T14:55:46.432Z,101752.60
2023-02-03T14:57:44.833Z,101755.60
2023-02-03T14:59:17.871Z,101767.20
2023-02-03T15:00:52.603Z,101771.00
2023-02-03T15:02:31.108Z,101774.80
2023-02-03T15:04:11.678Z,101770.40
2023-02-03T15:05:50.326Z,101770.40
2023-02-03T15:07:49.456Z,101773.60
2023-02-03T15:09:40.077Z,101770.60
2023-02-03T15:11:44.191Z,101763.20
2023-02-03T15:13:30.727Z,101771.20
2023-02-03T15:15:36.931Z,101773.80
2023-02-03T15:17:27.313Z,101777.80
2023-02-03T15:19:02.863Z,101785.60
2023-02-03T15:20:34.757Z,101779.40
2023-02-03T15:22:24.097Z,101782.60
2023-02-03T15:23:56.058Z,101783.60
2023-02-03T15:25:31.875Z,101779.40
2023-02-03T15:27:04.229Z,101777.80
2023-02-03T15:28:35.908Z,101784.20
2023-02-03T15:30:29.748Z,101784.40
2023-02-03T15:32:11.569Z,101796.20
2023-02-03T15:33:45.675Z,101798.60
2023-02-03T15:35:20.613Z,101794.20
2023-02-03T15:37:01.418Z,101796.40
2023-02-03T15:38:56.423Z,101799.40
2023-02-03T15:40:41.792Z,101796.40
2023-02-03T15:42:28.326Z,101791.80
2023-02-03T15:44:09.048Z,101803.40
2023-02-03T15:46:13.147Z,101800.20
2023-02-03T15:48:38.971Z,101804.00
2023-02-03T15:50:38.330Z,101808.40
2023-02-03T15:52:19.033Z,101803.20
2023-02-03T15:54:12.882Z,101812.60
2023-02-03T15:55:50.288Z,101814.20
2023-02-03T15:57:33.865Z,101808.00
2023-02-03T15:59:19.212Z,101816.00
2023-02-03T16:00:56.415Z,101823.40
2023-02-03T16:02:44.061Z,101824.40
2023-02-03T16:04:16.294Z,101829.60
2023-02-03T16:05:50.186Z,101832.80
2023-02-03T16:07:27.512Z,101831.80
2023-02-03T16:08:59.703Z,101824.40
2023-02-03T16:10:34.332Z,101827.40
2023-02-03T16:12:15.179Z,101824.40
2023-02-03T16:13:47.146Z,101828.40
2023-02-03T16:15:24.874Z,101830.20
2023-02-03T16:17:04.809Z,101830.00
2023-02-03T16:18:37.829Z,101837.40
2023-02-03T16:20:12.593Z,101839.00
2023-02-03T16:21:50.279Z,101848.20
2023-02-03T16:23:27.821Z,101848.40
2023-02-03T16:25:19.803Z,101853.00
2023-02-03T16:26:51.526Z,101857.20
2023-02-03T16:28:41.955Z,101857.40
2023-02-03T16:30:32.282Z,101856.40
2023-02-03T16:32:37.644Z,101859.60
2023-02-03T16:34:32.514Z,101858.00
2023-02-03T16:36:32.860Z,101867.40
2023-02-03T16:38:33.459Z,101872.20
2023-02-03T16:40:24.484Z,101869.60
2023-02-03T16:42:18.538Z,101870.40
2023-02-03T16:44:08.945Z,101876.20
2023-02-03T16:45:59.268Z,101880.40
2023-02-03T16:47:51.260Z,101887.20
2023-02-03T16:49:41.891Z,101884.20
2023-02-03T16:51:17.087Z,101889.80
2023-02-03T16:52:48.950Z,101892.40
2023-02-03T16:54:20.769Z,101891.20
2023-02-03T16:55:55.732Z,101894.20
2023-02-03T16:57:27.488Z,101885.80
2023-02-03T16:58:59.282Z,101890.80
2023-02-03T17:00:31.035Z,101895.60
2023-02-03T17:02:05.625Z,101895.20
2023-02-03T17:03:38.596Z,101893.20
2023-02-03T17:05:10.319Z,101894.40
2023-02-03T17:06:44.068Z,101900.60
2023-02-03T17:08:21.545Z,101905.00
2023-02-03T17:09:53.337Z,101905.20
2023-02-03T17:11:25.088Z,101905.60
2023-02-03T17:12:56.820Z,101909.20
2023-02-03T17:14:29.631Z,101911.80
2023-02-03T17:16:01.517Z,101911.20
2023-02-03T17:17:33.347Z,101915.40
2023-02-03T17:19:05.199Z,101914.20
2023-02-03T17:20:37.550Z,101912.00
2023-02-03T17:22:09.495Z,101908.80
2023-02-03T17:23:41.283Z,101915.40
2023-02-03T17:25:13.138Z,101917.00
2023-02-03T17:26:44.839Z,101917.80
2023-02-03T17:28:17.133Z,101924.60
2023-02-03T17:29:49.405Z,101932.40
2023-02-03T17:31:21.587Z,101934.40
2023-02-03T17:32:53.281Z,101937.20
2023-02-03T17:34:25.034Z,101938.00
2023-02-03T17:36:02.613Z,101939.80
2023-02-03T17:37:35.419Z,101941.80
2023-02-03T17:53:46.752Z,101966.60
2023-02-03T17:55:19.583Z,101964.80
2023-02-03T17:56:51.361Z,101961.60
2023-02-03T17:58:23.089Z,101959.20
2023-02-03T17:59:56.112Z,101963.20
2023-02-03T18:01:29.198Z,101966.80
2023-02-03T18:03:01.058Z,101967.80
2023-02-03T18:04:32.864Z,101969.80
2023-02-03T18:06:06.342Z,101967.40
2023-02-03T18:07:38.173Z,101965.20
2023-02-03T18:09:10.430Z,101979.20
2023-02-03T18:10:42.237Z,101982.20
2023-02-03T18:12:13.992Z,101991.40
2023-02-03T18:13:49.330Z,101986.60
2023-02-03T18:15:21.387Z,101992.20
2023-02-03T18:16:53.168Z,101991.60
2023-02-03T18:18:26.032Z,101993.00
2023-02-03T18:20:00.369Z,101991.80
2023-02-03T18:21:32.444Z,101987.40
2023-02-03T18:23:04.616Z,101992.20
2023-02-03T18:24:38.795Z,101996.20
2023-02-03T18:26:13.150Z,102000.20
2023-02-03T18:27:45.600Z,102001.80
2023-02-03T18:29:19.109Z,102000.40
2023-02-03T18:30:51.334Z,102006.00
2023-02-03T18:32:23.152Z,102004.60
2023-02-03T18:33:54.904Z,102007.80
2023-02-03T18:35:26.753Z,102005.20
2023-02-03T18:36:58.456Z,101995.80
2023-02-03T18:38:33.672Z,102005.80
2023-02-03T18:40:05.971Z,102007.80
2023-02-03T18:41:38.550Z,102014.00
2023-02-03T18:43:10.502Z,102009.20
2023-02-03T18:44:44.075Z,102014.80
2023-02-03T18:46:22.865Z,102009.60
2023-02-03T18:47:55.083Z,102006.60
2023-02-03T18:49:26.904Z,102010.00
2023-02-03T18:50:58.948Z,102000.80
2023-02-03T18:52:30.637Z,102002.20
2023-02-03T18:54:03.419Z,102004.40
2023-02-03T18:55:35.199Z,102010.40
2023-02-03T18:57:07.087Z,102015.00
2023-02-03T18:58:38.913Z,102015.20
2023-02-03T19:00:11.877Z,102016.20
2023-02-03T19:01:46.447Z,102019.60
2023-02-03T19:03:21.221Z,102019.60
2023-02-03T19:04:53.235Z,102017.20
2023-02-03T19:06:29.967Z,102018.80
2023-02-03T19:08:01.829Z,102015.00
2023-02-03T19:09:34.058Z,102022.40